Time;durP1;ratioP1;P1;durP2;ratioP2;P2;SDS_P1;SDS_P2;PMS_P1;PMS_P2;Temp;Humidity;BMP_temperature;BMP_pressure;BME280_temperature;BME280_humidity;BME280_pressure;Samples;Min_cycle;Max_cycle;Signal;HPM_P1;HPM_P2
2021/01/07 00:01:12;;;;;;;60.53;37.85;;;;;;;;;;5051775;28;20059;-55
2021/01/07 00:03:41;;;;;;;64.28;40.63;;;;;;;;;;5057729;28;20495;-54
2021/01/07 00:06:08;;;;;;;75.95;46.63;;;;;;;;;;5060124;28;20094;-52
2021/01/07 00:08:34;;;;;;;47.33;30.10;;;;;;;;;;5058295;28;20096;-51
2021/01/07 00:11:00;;;;;;;58.10;35.60;;;;;;;;;;5063802;28;20025;-54
2021/01/07 00:13:26;;;;;;;52.30;33.95;;;;;;;;;;5052229;28;20063;-59
2021/01/07 00:15:53;;;;;;;47.85;32.00;;;;;;;;;;5058168;28;20036;-54
2021/01/07 00:18:19;;;;;;;43.42;28.13;;;;;;;;;;5058999;28;20029;-52
2021/01/07 00:20:45;;;;;;;45.35;30.10;;;;;;;;;;5070232;28;20028;-54
2021/01/07 00:23:11;;;;;;;46.42;31.77;;;;;;;;;;5053676;28;20033;-53
2021/01/07 00:25:37;;;;;;;46.88;31.88;;;;;;;;;;5071341;28;20049;-53
2021/01/07 00:28:03;;;;;;;44.20;29.40;;;;;;;;;;5071815;28;20021;-53
2021/01/07 00:30:29;;;;;;;53.13;34.17;;;;;;;;;;5071573;28;20503;-53
2021/01/07 00:32:55;;;;;;;43.60;29.95;;;;;;;;;;5071777;28;20499;-53
2021/01/07 00:35:21;;;;;;;47.08;29.70;;;;;;;;;;5068358;28;20559;-52
2021/01/07 00:37:47;;;;;;;39.38;26.48;;;;;;;;;;5057353;28;20021;-53
2021/01/07 00:40:13;;;;;;;39.45;26.40;;;;;;;;;;5051252;28;20021;-52
2021/01/07 00:42:39;;;;;;;65.15;40.97;;;;;;;;;;5068120;28;20025;-52
2021/01/07 00:45:05;;;;;;;45.88;31.67;;;;;;;;;;5054566;28;20020;-52
2021/01/07 00:47:31;;;;;;;45.88;28.80;;;;;;;;;;5054242;28;20522;-52
2021/01/07 00:49:57;;;;;;;56.83;37.65;;;;;;;;;;5059871;28;20415;-55
2021/01/07 00:52:23;;;;;;;45.20;29.23;;;;;;;;;;5074363;28;20031;-54
2021/01/07 00:54:50;;;;;;;42.35;25.65;;;;;;;;;;5072094;28;20044;-52
2021/01/07 00:57:16;;;;;;;40.88;26.95;;;;;;;;;;5074776;28;20036;-53
2021/01/07 00:59:42;;;;;;;42.05;26.85;;;;;;;;;;5075131;28;20468;-53
2021/01/07 01:02:08;;;;;;;39.90;24.63;;;;;;;;;;5069809;28;20069;-52
2021/01/07 01:04:34;;;;;;;41.88;27.05;;;;;;;;;;5055047;28;20079;-53
2021/01/07 01:07:00;;;;;;;45.60;28.98;;;;;;;;;;5071509;28;20059;-53
2021/01/07 01:09:26;;;;;;;39.38;24.42;;;;;;;;;;5074645;28;20024;-53
2021/01/07 01:11:52;;;;;;;31.00;19.83;;;;;;;;;;5074425;28;20484;-53
2021/01/07 01:14:19;;;;;;;23.10;14.50;;;;;;;;;;5074714;28;20033;-52
2021/01/07 01:16:46;;;;;;;11.48;6.85;;;;;;;;;;5074607;28;20043;-52
2021/01/07 01:19:12;;;;;;;8.32;5.35;;;;;;;;;;5074407;28;20032;-53
2021/01/07 01:21:38;;;;;;;9.15;5.35;;;;;;;;;;5074391;28;20017;-52
2021/01/07 01:24:05;;;;;;;9.07;4.88;;;;;;;;;;5074022;28;20432;-52
2021/01/07 01:26:31;;;;;;;7.93;4.30;;;;;;;;;;5073956;28;20036;-51
2021/01/07 01:28:57;;;;;;;7.60;4.07;;;;;;;;;;5074340;28;20048;-53
2021/01/07 01:31:23;;;;;;;7.50;4.20;;;;;;;;;;5073768;28;20161;-53
2021/01/07 01:33:49;;;;;;;8.75;4.07;;;;;;;;;;5064537;28;20021;-54
2021/01/07 01:36:15;;;;;;;5.78;3.50;;;;;;;;;;5070558;28;20463;-53
2021/01/07 01:38:41;;;;;;;10.45;4.68;;;;;;;;;;5074278;28;20020;-52
2021/01/07 01:41:08;;;;;;;6.60;3.55;;;;;;;;;;5074278;28;20028;-53
2021/01/07 01:43:34;;;;;;;4.47;3.03;;;;;;;;;;5074010;28;20074;-53
2021/01/07 01:46:01;;;;;;;5.75;3.15;;;;;;;;;;5074455;28;20031;-52
2021/01/07 01:48:27;;;;;;;5.70;3.35;;;;;;;;;;5074086;28;20028;-52
2021/01/07 01:50:54;;;;;;;6.32;3.53;;;;;;;;;;5074249;28;20008;-53
2021/01/07 01:53:22;;;;;;;7.85;4.38;;;;;;;;;;5073848;28;20031;-53
2021/01/07 01:55:49;;;;;;;14.13;7.43;;;;;;;;;;5063151;28;20033;-53
2021/01/07 01:58:15;;;;;;;9.25;5.38;;;;;;;;;;5075432;28;20486;-52
2021/01/07 02:00:41;;;;;;;8.35;3.63;;;;;;;;;;5073200;28;20036;-54
2021/01/07 02:03:09;;;;;;;6.97;4.30;;;;;;;;;;5073425;28;20016;-54
2021/01/07 02:05:36;;;;;;;9.18;5.13;;;;;;;;;;5054685;28;20021;-53
2021/01/07 02:08:03;;;;;;;15.85;8.85;;;;;;;;;;5054068;28;20021;-51
2021/01/07 02:10:30;;;;;;;7.13;4.45;;;;;;;;;;5057036;28;20553;-52
2021/01/07 02:12:56;;;;;;;4.22;2.92;;;;;;;;;;5062066;28;20048;-51
2021/01/07 02:15:22;;;;;;;3.88;2.10;;;;;;;;;;5057271;28;20123;-53
2021/01/07 02:17:48;;;;;;;4.10;1.67;;;;;;;;;;5055645;28;20025;-53
2021/01/07 02:20:15;;;;;;;2.85;1.40;;;;;;;;;;5038053;28;20486;-54
2021/01/07 02:22:42;;;;;;;2.30;1.27;;;;;;;;;;5058120;28;20027;-54
2021/01/07 02:25:09;;;;;;;5.68;1.67;;;;;;;;;;5055749;28;20514;-54
2021/01/07 02:27:35;;;;;;;1.80;1.20;;;;;;;;;;5057765;28;20048;-55
2021/01/07 02:30:01;;;;;;;2.10;1.20;;;;;;;;;;5060581;28;20028;-53
2021/01/07 02:32:27;;;;;;;1.40;1.00;;;;;;;;;;5073471;28;20024;-55
2021/01/07 02:34:53;;;;;;;1.48;0.85;;;;;;;;;;5073404;28;20116;-53
2021/01/07 02:37:19;;;;;;;1.45;0.90;;;;;;;;;;5073292;28;20048;-52
2021/01/07 02:39:45;;;;;;;1.33;0.90;;;;;;;;;;5073380;28;20016;-53
2021/01/07 02:42:11;;;;;;;1.63;0.95;;;;;;;;;;5071307;28;20030;-52
2021/01/07 02:44:38;;;;;;;1.70;0.90;;;;;;;;;;5072736;28;20064;-52
2021/01/07 02:47:05;;;;;;;1.30;0.70;;;;;;;;;;5059815;28;20024;-54
2021/01/07 02:49:32;;;;;;;1.58;0.88;;;;;;;;;;5057457;28;20099;-52
2021/01/07 02:51:58;;;;;;;2.00;1.00;;;;;;;;;;5056621;28;20474;-53
2021/01/07 02:54:24;;;;;;;1.83;1.10;;;;;;;;;;5058793;28;20530;-52
2021/01/07 02:56:50;;;;;;;3.65;2.35;;;;;;;;;;5068219;28;20045;-52
2021/01/07 02:59:16;;;;;;;2.45;1.10;;;;;;;;;;5053059;28;20032;-56
2021/01/07 03:01:42;;;;;;;1.50;0.75;;;;;;;;;;5069877;28;20028;-53
2021/01/07 03:04:08;;;;;;;1.67;0.80;;;;;;;;;;5072931;28;20048;-53
2021/01/07 03:06:34;;;;;;;1.40;0.60;;;;;;;;;;5058777;28;20036;-56
2021/01/07 03:09:00;;;;;;;2.80;0.70;;;;;;;;;;5072688;28;20032;-51
2021/01/07 03:11:26;;;;;;;1.13;0.90;;;;;;;;;;5071896;28;20016;-52
2021/01/07 03:13:52;;;;;;;2.15;1.00;;;;;;;;;;5072641;28;20025;-53
2021/01/07 03:16:18;;;;;;;5.45;3.80;;;;;;;;;;5072644;28;20036;-55
2021/01/07 03:18:45;;;;;;;1.50;0.80;;;;;;;;;;5072702;28;20040;-51
2021/01/07 03:21:11;;;;;;;1.88;0.80;;;;;;;;;;5072797;28;20377;-53
2021/01/07 03:23:37;;;;;;;2.20;0.93;;;;;;;;;;5058142;28;20487;-52
2021/01/07 03:26:03;;;;;;;1.80;1.02;;;;;;;;;;5072653;28;20395;-53
2021/01/07 03:28:29;;;;;;;2.05;0.90;;;;;;;;;;5072482;28;20017;-53
2021/01/07 03:30:55;;;;;;;3.45;1.50;;;;;;;;;;5072465;28;20107;-55
2021/01/07 03:33:21;;;;;;;2.10;1.30;;;;;;;;;;5072645;28;20430;-54
2021/01/07 03:35:47;;;;;;;2.38;1.35;;;;;;;;;;5072392;28;20032;-53
2021/01/07 03:38:13;;;;;;;3.13;1.50;;;;;;;;;;5072794;28;20082;-53
2021/01/07 03:40:39;;;;;;;4.82;2.95;;;;;;;;;;5072450;28;20024;-52
2021/01/07 03:43:05;;;;;;;6.65;3.45;;;;;;;;;;5072252;28;20013;-53
2021/01/07 03:45:31;;;;;;;4.22;2.10;;;;;;;;;;5072487;28;20361;-53
2021/01/07 03:47:57;;;;;;;4.93;2.38;;;;;;;;;;5072169;28;20024;-53
2021/01/07 03:50:24;;;;;;;4.40;2.05;;;;;;;;;;5072503;28;20028;-53
2021/01/07 03:52:50;;;;;;;5.78;2.50;;;;;;;;;;5072130;28;20025;-53
2021/01/07 03:55:16;;;;;;;6.10;3.00;;;;;;;;;;5072189;28;20488;-53
2021/01/07 03:57:42;;;;;;;5.10;3.05;;;;;;;;;;5058112;28;20055;-52
2021/01/07 04:00:08;;;;;;;5.97;2.78;;;;;;;;;;5072153;28;20482;-53
2021/01/07 04:02:35;;;;;;;5.97;3.28;;;;;;;;;;5072225;28;20016;-52
2021/01/07 04:05:01;;;;;;;5.43;2.50;;;;;;;;;;5071975;28;20024;-52
2021/01/07 04:07:27;;;;;;;4.63;2.63;;;;;;;;;;5071952;28;20035;-53
2021/01/07 04:09:53;;;;;;;5.10;2.50;;;;;;;;;;5071624;28;20016;-53
2021/01/07 04:12:19;;;;;;;4.40;2.50;;;;;;;;;;5054021;28;20059;-56
2021/01/07 04:14:45;;;;;;;3.42;2.22;;;;;;;;;;5071921;28;20082;-52
2021/01/07 04:17:11;;;;;;;2.63;1.50;;;;;;;;;;5071739;28;20108;-53
2021/01/07 04:19:37;;;;;;;2.70;1.60;;;;;;;;;;5071837;28;20048;-52
2021/01/07 04:22:04;;;;;;;2.80;1.50;;;;;;;;;;5072317;28;20025;-52
2021/01/07 04:24:30;;;;;;;2.20;1.10;;;;;;;;;;5075618;28;20052;-52
2021/01/07 04:26:56;;;;;;;1.83;0.90;;;;;;;;;;5075801;28;20029;-52
2021/01/07 04:29:22;;;;;;;3.47;1.20;;;;;;;;;;5075502;28;20097;-52
2021/01/07 04:31:48;;;;;;;2.25;0.88;;;;;;;;;;5075730;28;20024;-53
2021/01/07 04:34:14;;;;;;;1.48;0.70;;;;;;;;;;5075395;28;20104;-53
2021/01/07 04:36:40;;;;;;;1.30;0.70;;;;;;;;;;5075585;28;20071;-55
2021/01/07 04:39:06;;;;;;;1.08;0.60;;;;;;;;;;5075134;28;20025;-52
2021/01/07 04:41:32;;;;;;;1.02;0.57;;;;;;;;;;5075438;28;20025;-52
2021/01/07 04:43:58;;;;;;;0.90;0.50;;;;;;;;;;5075056;28;20107;-53
2021/01/07 04:46:25;;;;;;;1.15;0.60;;;;;;;;;;5074960;28;20032;-52
2021/01/07 04:48:51;;;;;;;0.80;0.40;;;;;;;;;;5075171;28;20032;-52
2021/01/07 04:51:17;;;;;;;1.50;0.90;;;;;;;;;;5075114;28;20442;-52
2021/01/07 04:53:44;;;;;;;3.47;2.00;;;;;;;;;;5075052;28;20047;-52
2021/01/07 04:56:10;;;;;;;3.60;2.40;;;;;;;;;;5074983;28;20115;-53
2021/01/07 04:58:36;;;;;;;3.20;1.42;;;;;;;;;;5074864;28;20020;-52
2021/01/07 05:01:03;;;;;;;3.28;2.10;;;;;;;;;;5074980;28;20024;-52
2021/01/07 05:03:32;;;;;;;2.30;1.00;;;;;;;;;;5075153;28;20476;-54
2021/01/07 05:05:59;;;;;;;10.43;5.43;;;;;;;;;;5075105;28;20051;-53
2021/01/07 05:08:25;;;;;;;4.70;2.10;;;;;;;;;;5075030;28;20021;-53
2021/01/07 05:10:52;;;;;;;3.95;2.38;;;;;;;;;;5056658;28;20454;-51
2021/01/07 05:13:18;;;;;;;1.90;1.30;;;;;;;;;;5074672;28;20027;-53
2021/01/07 05:15:44;;;;;;;5.75;3.03;;;;;;;;;;5056770;28;20044;-50
2021/01/07 05:18:10;;;;;;;1.67;1.27;;;;;;;;;;5074821;28;20033;-52
2021/01/07 05:20:36;;;;;;;0.68;0.60;;;;;;;;;;5074803;28;20025;-52
2021/01/07 05:23:03;;;;;;;3.58;2.63;;;;;;;;;;5074647;28;20027;-53
2021/01/07 05:25:29;;;;;;;5.38;3.90;;;;;;;;;;5074458;28;20049;-53
2021/01/07 05:27:58;;;;;;;6.60;4.00;;;;;;;;;;5074521;28;20025;-52
2021/01/07 05:30:26;;;;;;;7.45;4.75;;;;;;;;;;5074124;28;20479;-52
2021/01/07 05:32:52;;;;;;;7.22;4.28;;;;;;;;;;5074758;28;20029;-51
2021/01/07 05:35:21;;;;;;;11.32;6.95;;;;;;;;;;5073227;28;20037;-52
2021/01/07 05:37:47;;;;;;;5.05;3.00;;;;;;;;;;5074661;28;20016;-56
2021/01/07 05:40:13;;;;;;;8.23;3.88;;;;;;;;;;5074404;28;20151;-52
2021/01/07 05:42:40;;;;;;;5.85;3.17;;;;;;;;;;5074600;28;20028;-54
2021/01/07 05:45:08;;;;;;;8.00;3.53;;;;;;;;;;5074349;28;20027;-53
2021/01/07 05:47:38;;;;;;;5.93;3.38;;;;;;;;;;5056594;28;20392;-53
2021/01/07 05:50:05;;;;;;;6.05;3.45;;;;;;;;;;5074127;28;20120;-53
2021/01/07 05:52:32;;;;;;;14.30;8.85;;;;;;;;;;5074190;28;20051;-52
2021/01/07 05:54:59;;;;;;;17.45;9.40;;;;;;;;;;5074026;28;20454;-53
2021/01/07 05:57:26;;;;;;;15.90;9.32;;;;;;;;;;5074109;28;20047;-56
2021/01/07 05:59:53;;;;;;;12.10;6.20;;;;;;;;;;5073909;28;20464;-53
2021/01/07 06:02:21;;;;;;;11.43;6.85;;;;;;;;;;5073792;28;20476;-53
2021/01/07 06:04:51;;;;;;;17.52;10.40;;;;;;;;;;5073823;28;20044;-52
2021/01/07 06:07:17;;;;;;;19.40;11.68;;;;;;;;;;5074008;28;20025;-55
2021/01/07 06:09:46;;;;;;;18.13;10.52;;;;;;;;;;5073701;28;20028;-53
2021/01/07 06:12:13;;;;;;;14.82;8.35;;;;;;;;;;5073604;28;20096;-53
2021/01/07 06:14:43;;;;;;;15.15;8.68;;;;;;;;;;5073103;28;20451;-53
2021/01/07 06:17:09;;;;;;;17.73;10.23;;;;;;;;;;5079035;28;20103;-53
2021/01/07 06:19:40;;;;;;;21.60;12.13;;;;;;;;;;5074328;28;20094;-52
2021/01/07 06:22:10;;;;;;;40.88;25.25;;;;;;;;;;5073696;28;20465;-52
2021/01/07 06:24:37;;;;;;;49.63;31.00;;;;;;;;;;5073149;28;20093;-52
2021/01/07 06:27:23;;;;;;;26.10;16.20;;;;;;;;;;5073516;28;20101;-52
2021/01/07 06:29:53;;;;;;;60.85;33.80;;;;;;;;;;4972663;28;20121;-52
2021/01/07 06:32:21;;;;;;;56.53;31.88;;;;;;;;;;4972460;28;20043;-53
2021/01/07 06:34:49;;;;;;;67.80;41.03;;;;;;;;;;4960951;28;20040;-52
2021/01/07 06:37:36;;;;;;;56.75;33.95;;;;;;;;;;4955844;28;20027;-52
2021/01/07 06:40:05;;;;;;;84.97;44.67;;;;;;;;;;4955114;28;20050;-53
2021/01/07 06:42:33;;;;;;;113.38;57.65;;;;;;;;;;4954529;28;20139;-53
2021/01/07 06:44:59;;;;;;;85.43;47.75;;;;;;;;;;4938564;28;20035;-53
2021/01/07 06:47:28;;;;;;;96.60;54.22;;;;;;;;;;4959669;28;20126;-55
2021/01/07 06:49:55;;;;;;;123.68;69.45;;;;;;;;;;4954252;28;20031;-52
2021/01/07 06:52:24;;;;;;;128.25;75.88;;;;;;;;;;4966700;28;20066;-52
2021/01/07 06:54:53;;;;;;;103.50;63.65;;;;;;;;;;4954117;28;20039;-53
2021/01/07 06:57:19;;;;;;;91.05;56.75;;;;;;;;;;4955539;28;20151;-53
2021/01/07 06:59:54;;;;;;;75.28;47.03;;;;;;;;;;4954940;28;20078;-52
2021/01/07 07:02:20;;;;;;;78.00;47.92;;;;;;;;;;4966481;28;20026;-55
2021/01/07 07:04:47;;;;;;;154.45;93.35;;;;;;;;;;4971673;28;20038;-51
2021/01/07 07:07:16;;;;;;;166.73;99.38;;;;;;;;;;5032932;28;20060;-52
2021/01/07 07:09:45;;;;;;;165.45;99.65;;;;;;;;;;5057013;28;20021;-51
2021/01/07 07:12:30;;;;;;;151.32;93.05;;;;;;;;;;5061982;28;20063;-52
2021/01/07 07:14:59;;;;;;;106.78;64.25;;;;;;;;;;5065810;28;20033;-55
2021/01/07 07:17:26;;;;;;;139.38;83.88;;;;;;;;;;5072251;28;20035;-55
2021/01/07 07:19:53;;;;;;;161.07;95.40;;;;;;;;;;5064316;28;20035;-56
2021/01/07 07:22:20;;;;;;;171.88;97.63;;;;;;;;;;5072239;28;20036;-53
2021/01/07 07:24:54;;;;;;;132.68;78.85;;;;;;;;;;5072276;28;20404;-52
2021/01/07 07:27:20;;;;;;;154.15;93.90;;;;;;;;;;5072160;28;20104;-53
2021/01/07 07:29:49;;;;;;;155.93;94.32;;;;;;;;;;5072298;28;20028;-52
2021/01/07 07:32:25;;;;;;;182.52;104.65;;;;;;;;;;5072123;28;20027;-52
2021/01/07 07:34:52;;;;;;;179.15;99.70;;;;;;;;;;5070919;28;20037;-52
2021/01/07 07:37:19;;;;;;;242.63;126.63;;;;;;;;;;5054468;28;20029;-53
2021/01/07 07:39:47;;;;;;;197.85;115.32;;;;;;;;;;5052368;28;20053;-54
2021/01/07 07:42:13;;;;;;;200.90;116.57;;;;;;;;;;5068873;28;20107;-53
2021/01/07 07:44:39;;;;;;;205.88;119.65;;;;;;;;;;5072059;28;20063;-52
2021/01/07 07:47:05;;;;;;;204.40;120.18;;;;;;;;;;5071645;28;20028;-52
2021/01/07 07:49:31;;;;;;;204.95;121.00;;;;;;;;;;5072085;28;20108;-52
2021/01/07 07:51:57;;;;;;;240.43;144.85;;;;;;;;;;5071573;28;20035;-53
2021/01/07 07:54:24;;;;;;;228.43;138.85;;;;;;;;;;5071663;28;20115;-54
2021/01/07 07:56:57;;;;;;;232.38;140.98;;;;;;;;;;5071299;28;20040;-53
2021/01/07 07:59:23;;;;;;;214.40;127.82;;;;;;;;;;5070430;28;20032;-52
2021/01/07 08:01:50;;;;;;;215.27;130.85;;;;;;;;;;5070787;28;20025;-52
2021/01/07 08:04:16;;;;;;;230.88;139.13;;;;;;;;;;5071532;28;20020;-52
2021/01/07 08:06:43;;;;;;;226.35;138.60;;;;;;;;;;5071426;28;20039;-52
2021/01/07 08:09:10;;;;;;;179.27;112.05;;;;;;;;;;5071256;28;20021;-52
2021/01/07 08:11:55;;;;;;;178.02;112.63;;;;;;;;;;5053575;28;20025;-52
2021/01/07 08:14:21;;;;;;;188.43;121.65;;;;;;;;;;5052835;28;20387;-52
2021/01/07 08:16:47;;;;;;;219.13;139.43;;;;;;;;;;5070593;28;20101;-52
2021/01/07 08:19:14;;;;;;;251.25;153.35;;;;;;;;;;5071499;28;20519;-51
2021/01/07 08:21:46;;;;;;;273.83;170.10;;;;;;;;;;5070665;28;20063;-54
2021/01/07 08:24:13;;;;;;;246.13;147.23;;;;;;;;;;5069784;28;20129;-53
2021/01/07 08:26:39;;;;;;;239.13;150.15;;;;;;;;;;5071242;28;20033;-53
2021/01/07 08:29:08;;;;;;;237.15;148.82;;;;;;;;;;5071538;28;20057;-53
2021/01/07 08:31:34;;;;;;;230.05;148.70;;;;;;;;;;5071617;28;20096;-52
2021/01/07 08:34:03;;;;;;;227.73;142.45;;;;;;;;;;5071903;28;20016;-52
2021/01/07 08:36:31;;;;;;;212.25;132.95;;;;;;;;;;5071638;28;20036;-52
2021/01/07 08:38:57;;;;;;;183.70;115.68;;;;;;;;;;5071680;28;20023;-52
2021/01/07 08:41:23;;;;;;;165.35;103.95;;;;;;;;;;5070781;28;20044;-55
2021/01/07 08:43:50;;;;;;;148.32;94.15;;;;;;;;;;5070083;28;20025;-51
2021/01/07 08:46:19;;;;;;;127.90;81.90;;;;;;;;;;5078636;28;20025;-51
2021/01/07 08:48:56;;;;;;;111.88;70.60;;;;;;;;;;5072650;28;20016;-51
2021/01/07 08:51:23;;;;;;;109.22;72.07;;;;;;;;;;5071004;28;20074;-52
2021/01/07 08:53:53;;;;;;;97.00;61.17;;;;;;;;;;5070039;28;20021;-51
2021/01/07 08:56:28;;;;;;;99.10;61.50;;;;;;;;;;5070393;28;20040;-52
2021/01/07 08:59:14;;;;;;;102.90;65.82;;;;;;;;;;5070007;28;20051;-55
2021/01/07 09:01:40;;;;;;;117.38;74.95;;;;;;;;;;5071208;28;20535;-55
2021/01/07 09:04:21;;;;;;;121.60;74.85;;;;;;;;;;5070144;28;20024;-52
2021/01/07 09:07:01;;;;;;;82.30;49.70;;;;;;;;;;5060486;28;20040;-51
2021/01/07 09:09:28;;;;;;;70.47;44.35;;;;;;;;;;5068202;28;20017;-50
2021/01/07 09:12:09;;;;;;;85.72;52.50;;;;;;;;;;5065298;28;20499;-52
2021/01/07 09:14:45;;;;;;;101.40;60.53;;;;;;;;;;5074511;28;20028;-55
2021/01/07 09:17:11;;;;;;;80.72;50.58;;;;;;;;;;5065609;28;20040;-52
2021/01/07 09:19:37;;;;;;;75.57;45.72;;;;;;;;;;5074025;28;20035;-52
2021/01/07 09:22:03;;;;;;;73.88;46.17;;;;;;;;;;5074088;28;20029;-54
2021/01/07 09:24:34;;;;;;;78.72;49.88;;;;;;;;;;5063178;28;20549;-52
2021/01/07 09:27:09;;;;;;;62.97;40.70;;;;;;;;;;5071744;28;20108;-52
2021/01/07 09:29:36;;;;;;;59.97;38.20;;;;;;;;;;5074109;28;20425;-53
2021/01/07 09:32:02;;;;;;;59.85;40.03;;;;;;;;;;5074283;28;20029;-53
2021/01/07 09:34:29;;;;;;;45.53;30.02;;;;;;;;;;5074263;28;20476;-54
2021/01/07 09:36:55;;;;;;;67.15;44.33;;;;;;;;;;5074313;28;20071;-53
2021/01/07 09:39:21;;;;;;;55.85;36.97;;;;;;;;;;5074384;28;20031;-57
2021/01/07 09:41:47;;;;;;;61.30;43.13;;;;;;;;;;5074406;28;20541;-54
2021/01/07 09:44:13;;;;;;;53.90;37.47;;;;;;;;;;5074293;28;20039;-53
2021/01/07 09:46:39;;;;;;;56.80;37.83;;;;;;;;;;5073967;28;20025;-55
2021/01/07 09:49:05;;;;;;;63.67;41.85;;;;;;;;;;5073655;28;20168;-53
2021/01/07 09:51:32;;;;;;;45.53;31.50;;;;;;;;;;5064106;28;20017;-51
2021/01/07 09:53:58;;;;;;;54.70;38.85;;;;;;;;;;5060461;28;20024;-57
2021/01/07 09:56:24;;;;;;;35.08;23.98;;;;;;;;;;5074105;28;20098;-55
2021/01/07 09:58:50;;;;;;;32.03;23.60;;;;;;;;;;5073853;28;20033;-54
2021/01/07 10:01:19;;;;;;;38.80;27.27;;;;;;;;;;5073627;28;20028;-54
2021/01/07 10:03:45;;;;;;;34.72;23.95;;;;;;;;;;5059982;28;20021;-58
2021/01/07 10:06:11;;;;;;;28.92;20.58;;;;;;;;;;5073910;28;20032;-54
2021/01/07 10:08:37;;;;;;;33.45;24.00;;;;;;;;;;5066443;28;20031;-55
2021/01/07 10:11:04;;;;;;;29.38;21.08;;;;;;;;;;5073309;28;20373;-52
2021/01/07 10:13:30;;;;;;;54.50;34.85;;;;;;;;;;5067533;28;20044;-54
2021/01/07 10:15:57;;;;;;;63.15;41.10;;;;;;;;;;5055172;28;20126;-55
2021/01/07 10:18:23;;;;;;;29.73;22.52;;;;;;;;;;5054826;28;20480;-56
2021/01/07 10:20:49;;;;;;;23.50;16.95;;;;;;;;;;5065859;28;20078;-56
2021/01/07 10:23:17;;;;;;;21.85;16.75;;;;;;;;;;5057039;23;20065;-52
2021/01/07 10:25:44;;;;;;;16.55;13.15;;;;;;;;;;5013045;28;20029;-58
2021/01/07 10:28:10;;;;;;;29.27;22.52;;;;;;;;;;5012892;28;20034;-57
2021/01/07 10:30:37;;;;;;;23.45;17.45;;;;;;;;;;5012969;28;20030;-53
2021/01/07 10:33:03;;;;;;;22.58;16.92;;;;;;;;;;5012231;28;20030;-58
2021/01/07 10:35:29;;;;;;;18.25;13.68;;;;;;;;;;5012879;28;20065;-57
2021/01/07 10:38:04;;;;;;;31.63;23.20;;;;;;;;;;5012734;28;20026;-56
2021/01/07 10:40:31;;;;;;;33.50;24.42;;;;;;;;;;5012779;28;20032;-57
2021/01/07 10:42:59;;;;;;;35.95;25.15;;;;;;;;;;5012510;28;20030;-54
2021/01/07 10:45:25;;;;;;;28.38;21.30;;;;;;;;;;5011859;28;20029;-56
2021/01/07 10:47:56;;;;;;;44.75;32.53;;;;;;;;;;5012387;28;20404;-58
2021/01/07 10:50:27;;;;;;;36.33;26.30;;;;;;;;;;5012627;28;20499;-54
2021/01/07 10:52:59;;;;;;;32.25;23.42;;;;;;;;;;5012563;28;20091;-53
2021/01/07 10:55:27;;;;;;;39.17;26.83;;;;;;;;;;5011991;28;20033;-54
2021/01/07 10:58:11;;;;;;;37.75;25.63;;;;;;;;;;5011868;28;20434;-51
2021/01/07 11:00:47;;;;;;;38.05;25.83;;;;;;;;;;5008888;28;20026;-52
2021/01/07 11:03:25;;;;;;;39.70;26.80;;;;;;;;;;5012286;28;20022;-53
2021/01/07 11:06:12;;;;;;;51.30;34.03;;;;;;;;;;5012303;28;20481;-55
2021/01/07 11:08:41;;;;;;;35.65;22.98;;;;;;;;;;5011020;28;20034;-52
2021/01/07 11:11:21;;;;;;;31.55;22.83;;;;;;;;;;5012173;28;20087;-54
2021/01/07 11:13:51;;;;;;;25.92;17.80;;;;;;;;;;5011055;28;20041;-53
2021/01/07 11:16:25;;;;;;;38.13;24.00;;;;;;;;;;5012880;28;20113;-53
2021/01/07 11:18:54;;;;;;;33.13;21.52;;;;;;;;;;5012939;28;20018;-53
2021/01/07 11:21:25;;;;;;;31.20;21.33;;;;;;;;;;5012132;28;20030;-54
2021/01/07 11:23:51;;;;;;;32.65;20.42;;;;;;;;;;5012096;28;20053;-54
2021/01/07 11:26:18;;;;;;;29.88;19.05;;;;;;;;;;5012781;28;20029;-57
2021/01/07 11:28:44;;;;;;;34.22;22.17;;;;;;;;;;5012924;28;20104;-53
2021/01/07 11:31:13;;;;;;;27.00;18.38;;;;;;;;;;5012643;28;20157;-53
2021/01/07 11:33:40;;;;;;;22.92;16.17;;;;;;;;;;5012043;28;20025;-57
2021/01/07 11:36:08;;;;;;;21.05;14.70;;;;;;;;;;5012725;28;20036;-56
2021/01/07 11:38:44;;;;;;;32.67;21.23;;;;;;;;;;5012201;28;20014;-56
2021/01/07 11:41:26;;;;;;;24.27;17.15;;;;;;;;;;5012200;28;20026;-53
2021/01/07 11:44:12;;;;;;;27.77;19.50;;;;;;;;;;5011907;28;20033;-56
2021/01/07 11:46:38;;;;;;;28.23;19.40;;;;;;;;;;5012185;28;20054;-54
2021/01/07 11:49:05;;;;;;;34.42;23.00;;;;;;;;;;5012587;28;20462;-52
2021/01/07 11:51:31;;;;;;;33.65;23.33;;;;;;;;;;5012238;28;20022;-52
2021/01/07 11:54:02;;;;;;;35.95;24.40;;;;;;;;;;5011655;28;20133;-52
2021/01/07 11:56:29;;;;;;;31.83;22.10;;;;;;;;;;5012614;28;20119;-54
2021/01/07 11:58:59;;;;;;;100.35;62.65;;;;;;;;;;5013290;28;20723;-54
2021/01/07 12:01:26;;;;;;;49.42;30.33;;;;;;;;;;5012949;28;20022;-56
2021/01/07 12:03:52;;;;;;;43.78;28.38;;;;;;;;;;4995133;28;20026;-54
2021/01/07 12:06:22;;;;;;;34.25;22.27;;;;;;;;;;5013024;28;20022;-53
2021/01/07 12:09:06;;;;;;;21.83;15.80;;;;;;;;;;5012536;28;20385;-54
2021/01/07 12:11:55;;;;;;;28.90;19.95;;;;;;;;;;5012935;28;20048;-52
2021/01/07 12:14:23;;;;;;;37.70;25.00;;;;;;;;;;5001375;28;20470;-52
2021/01/07 12:16:53;;;;;;;31.17;19.45;;;;;;;;;;5012823;28;20068;-54
2021/01/07 12:19:21;;;;;;;23.13;14.77;;;;;;;;;;5012638;28;20030;-52
2021/01/07 12:21:49;;;;;;;33.20;21.25;;;;;;;;;;5011142;28;20025;-55
2021/01/07 12:24:16;;;;;;;140.48;91.32;;;;;;;;;;5009780;28;20057;-56
2021/01/07 12:26:45;;;;;;;24.10;16.88;;;;;;;;;;5010710;28;20030;-51
2021/01/07 12:29:12;;;;;;;15.50;9.43;;;;;;;;;;5010289;28;20037;-52
2021/01/07 12:31:40;;;;;;;12.75;8.45;;;;;;;;;;5011783;28;20076;-53
2021/01/07 12:34:29;;;;;;;16.60;9.80;;;;;;;;;;5012241;28;20030;-53
2021/01/07 12:37:09;;;;;;;17.17;9.90;;;;;;;;;;5000595;28;20473;-53
2021/01/07 12:39:37;;;;;;;15.00;8.98;;;;;;;;;;5011916;28;20030;-55
2021/01/07 12:42:07;;;;;;;33.45;19.00;;;;;;;;;;5011916;28;20482;-53
2021/01/07 12:44:33;;;;;;;18.10;11.27;;;;;;;;;;5014759;28;20469;-52
2021/01/07 12:46:59;;;;;;;41.65;24.35;;;;;;;;;;5015318;28;20039;-54
2021/01/07 12:49:28;;;;;;;46.05;26.27;;;;;;;;;;5015922;28;20026;-53
2021/01/07 12:51:55;;;;;;;29.38;16.00;;;;;;;;;;5015829;28;20073;-52
2021/01/07 12:54:21;;;;;;;15.98;10.73;;;;;;;;;;5015515;28;20107;-53
2021/01/07 12:56:47;;;;;;;13.80;9.20;;;;;;;;;;5015530;28;20052;-51
2021/01/07 12:59:14;;;;;;;13.05;9.30;;;;;;;;;;5015710;28;20021;-53
2021/01/07 13:01:47;;;;;;;13.73;9.90;;;;;;;;;;5014655;28;20025;-54
2021/01/07 13:04:33;;;;;;;19.02;12.50;;;;;;;;;;5015429;28;20022;-53
2021/01/07 13:07:00;;;;;;;24.50;15.13;;;;;;;;;;5012282;28;20596;-54
2021/01/07 13:09:30;;;;;;;20.20;13.48;;;;;;;;;;5015387;28;20034;-52
2021/01/07 13:11:57;;;;;;;18.98;12.45;;;;;;;;;;5015253;28;20072;-52
2021/01/07 13:14:28;;;;;;;22.00;14.93;;;;;;;;;;5015418;28;20036;-54
2021/01/07 13:16:54;;;;;;;21.50;14.90;;;;;;;;;;5015148;28;20030;-52
2021/01/07 13:19:20;;;;;;;24.20;16.10;;;;;;;;;;5015352;28;20033;-52
2021/01/07 13:21:49;;;;;;;23.65;16.15;;;;;;;;;;5015124;28;20034;-52
2021/01/07 13:24:17;;;;;;;22.80;15.93;;;;;;;;;;5014969;28;20050;-53
2021/01/07 13:26:43;;;;;;;33.08;20.58;;;;;;;;;;5015413;28;20077;-52
2021/01/07 13:29:12;;;;;;;35.58;21.15;;;;;;;;;;5015087;28;20389;-52
2021/01/07 13:31:38;;;;;;;56.50;29.25;;;;;;;;;;5015066;28;20065;-53
2021/01/07 13:34:04;;;;;;;46.08;26.10;;;;;;;;;;5013278;28;20568;-54
2021/01/07 13:36:31;;;;;;;36.53;21.85;;;;;;;;;;5010248;28;20133;-53
2021/01/07 13:39:00;;;;;;;38.75;22.50;;;;;;;;;;5010582;28;20034;-53
2021/01/07 13:41:27;;;;;;;35.05;21.45;;;;;;;;;;5010693;28;20109;-51
2021/01/07 13:43:54;;;;;;;29.05;18.75;;;;;;;;;;5011791;28;20022;-57
2021/01/07 13:46:22;;;;;;;40.33;23.40;;;;;;;;;;5011223;28;20363;-53
2021/01/07 13:48:53;;;;;;;47.45;27.15;;;;;;;;;;5010044;28;20026;-53
2021/01/07 13:51:20;;;;;;;55.40;29.90;;;;;;;;;;5009967;28;20022;-53
2021/01/07 13:53:46;;;;;;;59.78;32.97;;;;;;;;;;5010310;28;20469;-53
2021/01/07 13:56:12;;;;;;;54.88;29.80;;;;;;;;;;5009964;28;20033;-56
2021/01/07 13:58:39;;;;;;;29.65;19.75;;;;;;;;;;5010392;28;20482;-52
2021/01/07 14:01:06;;;;;;;31.80;20.25;;;;;;;;;;5009640;28;20025;-52
2021/01/07 14:03:32;;;;;;;30.23;19.08;;;;;;;;;;5009802;28;20041;-53
2021/01/07 14:05:59;;;;;;;32.00;21.05;;;;;;;;;;5009252;28;20037;-51
2021/01/07 14:08:29;;;;;;;29.23;19.70;;;;;;;;;;5007461;28;20053;-52
2021/01/07 14:10:58;;;;;;;25.38;17.33;;;;;;;;;;5009195;28;20444;-54
2021/01/07 14:13:25;;;;;;;35.58;22.45;;;;;;;;;;5007751;28;20728;-53
2021/01/07 14:15:51;;;;;;;30.73;20.05;;;;;;;;;;5009114;28;20037;-54
2021/01/07 14:18:17;;;;;;;39.97;26.23;;;;;;;;;;5008941;28;20037;-53
2021/01/07 14:20:44;;;;;;;43.97;30.75;;;;;;;;;;5009062;28;20386;-53
2021/01/07 14:23:13;;;;;;;57.40;37.97;;;;;;;;;;5002837;28;20050;-51
2021/01/07 14:25:42;;;;;;;58.13;36.22;;;;;;;;;;4993476;28;20113;-52
2021/01/07 14:28:26;;;;;;;69.35;44.28;;;;;;;;;;4992227;28;20101;-52